Choctaw — WDF4875 — position and weather

sailwx.info

Track history (hours):
 
Tides and Currents Weather Stations Pressure Air Temp Water Temp Dewpoint Dewpoint Depression Visibility Wind Speed Wind Dir Waves Ship Positions

Choctaw

Owner: Canal Barge Company, Inc., Belle Chasse, LA. More information available from US FCC via Universal Licensing System and Coast Guard Vessel Documentation Center.

Last reported at 2017-Sep-22 00:48 UTC. Time now 2017-Sep-23 02:25 UTC.
Position N 29°42' W 095°03'.

Length 25 m.

Type: Towing. MMSI: 367456760.

Date/timePositionNaut miles runAvg speedWind from/ knotsBaromVisibWave heightAir tempDewpointWater temp
2017-Sep-22 00:48N 29°42' W 095°03'1 2.0
2017-Sep-22 00:18N 29°42' W 095°02'1 1.5
2017-Sep-21 23:57N 29°43' W 095°01'2 4.1
2017-Sep-21 23:30N 29°44' W 095°03'0 0.0
2017-Sep-21 05:24N 29°44' W 095°03'2 4.3
2017-Sep-21 04:59N 29°43' W 095°01'1 2.2
2017-Sep-21 04:22N 29°42' W 095°03'0 0.0
2017-Sep-20 20:25N 29°42' W 095°03'0 0.0
2017-Sep-20 19:55N 29°42' W 095°03'0 0.0
2017-Sep-20 19:28N 29°42' W 095°03'0 0.0
2017-Sep-20 18:04N 29°42' W 095°03'0 0.0
2017-Sep-20 17:52N 29°42' W 095°03'0 0.0
2017-Sep-20 16:46N 29°42' W 095°03'0 0.0
2017-Sep-20 16:16N 29°42' W 095°03'0 0.0
2017-Sep-20 15:52N 29°42' W 095°03'0 0.0
2017-Sep-20 15:25N 29°42' W 095°03'0 0.0
2017-Sep-20 12:28N 29°42' W 095°03'0 0.0
2017-Sep-20 10:25N 29°42' W 095°03'0 0.0
2017-Sep-20 09:58N 29°42' W 095°03'0 0.0
2017-Sep-20 09:28N 29°42' W 095°03'0 0.0
2017-Sep-20 08:55N 29°42' W 095°03'0 0.0
2017-Sep-20 07:28N 29°42' W 095°03'0 0.0
2017-Sep-20 06:57N 29°42' W 095°03'0 0.0
2017-Sep-20 06:03N 29°42' W 095°03'0 0.0
2017-Sep-20 06:00N 29°42' W 095°03'0 0.0
2017-Sep-20 05:30N 29°42' W 095°03'0 0.0
2017-Sep-20 05:00N 29°42' W 095°03'0 0.0
2017-Sep-20 04:30N 29°42' W 095°03'0 0.0
2017-Sep-20 03:57N 29°42' W 095°03'0 0.0
2017-Sep-20 03:30N 29°42' W 095°03'0 0.0
2017-Sep-20 02:54N 29°42' W 095°03'0 0.0
2017-Sep-20 02:27N 29°42' W 095°03'0 0.0
2017-Sep-20 01:39N 29°42' W 095°03'0 0.0
2017-Sep-20 01:21N 29°42' W 095°03'0 0.0
2017-Sep-20 00:51N 29°42' W 095°03'0 0.0
2017-Sep-20 00:24N 29°42' W 095°03'0 0.0
2017-Sep-20 00:00N 29°42' W 095°03'0 0.0
2017-Sep-19 23:27N 29°42' W 095°03'0 0.0
2017-Sep-19 22:15N 29°42' W 095°03'0 0.0
2017-Sep-19 21:54N 29°42' W 095°03'0 0.0
2017-Sep-19 21:21N 29°42' W 095°03'0 0.0
2017-Sep-19 21:00N 29°42' W 095°03'0 0.0
2017-Sep-19 20:27N 29°42' W 095°03'0 0.0
2017-Sep-19 18:33N 29°42' W 095°03'0 0.6
2017-Sep-19 18:18N 29°42' W 095°03'1 3.4
2017-Sep-19 17:59N 29°42' W 095°01'2 3.7
2017-Sep-19 17:28N 29°44' W 095°02'1 0.0
2017-Sep-18 14:02N 29°44' W 095°02'1 5.2
2017-Sep-18 13:50N 29°43' W 095°01'2 6.2
2017-Sep-18 13:30N 29°42' W 094°59'4 7.3
2017-Sep-18 13:00N 29°38' W 094°58'4 7.5
2017-Sep-18 12:30N 29°35' W 094°56'70 4.1
2017-Sep-17 19:34N 30°03' W 093°42'2 5.3
2017-Sep-17 19:17N 30°04' W 093°41'2 5.4
2017-Sep-17 18:59N 30°04' W 093°39'3 5.2
2017-Sep-17 18:30N 30°04' W 093°36'2 4.7
2017-Sep-17 18:00N 30°04' W 093°33'2 4.6
2017-Sep-17 17:30N 30°04' W 093°31'2 3.7
2017-Sep-17 17:00N 30°04' W 093°28'2 4.2
2017-Sep-17 16:30N 30°04' W 093°26'2 4.5
2017-Sep-17 16:00N 30°04' W 093°23'2 3.7
2017-Sep-17 15:30N 30°04' W 093°21'2 3.6
2017-Sep-17 15:00N 30°05' W 093°20'1 2.1
2017-Sep-17 14:29N 30°06' W 093°19'1 1.1
2017-Sep-17 14:00N 30°06' W 093°20'2 3.2
2017-Sep-17 13:30N 30°08' W 093°20'0 1.0
2017-Sep-17 13:00N 30°08' W 093°20'0 0.0
2017-Sep-17 12:27N 30°08' W 093°20'0 0.1
2017-Sep-17 12:00N 30°08' W 093°20'0 0.7
2017-Sep-17 11:30N 30°08' W 093°19'0 0.0
2017-Sep-17 11:00N 30°08' W 093°19'0 0.0
2017-Sep-17 10:30N 30°08' W 093°19'0 0.0
2017-Sep-17 09:59N 30°08' W 093°19'0 0.0
2017-Sep-17 09:29N 30°08' W 093°19'0 0.0
2017-Sep-17 08:59N 30°08' W 093°19'0 0.0
2017-Sep-17 08:29N 30°08' W 093°19'0 0.0
2017-Sep-17 07:59N 30°08' W 093°19'0 0.0
2017-Sep-17 07:29N 30°08' W 093°19'0 0.0
2017-Sep-17 06:59N 30°08' W 093°19'0 0.0
2017-Sep-17 06:29N 30°08' W 093°19'0 0.0
2017-Sep-17 05:59N 30°08' W 093°19'0 0.0
2017-Sep-17 05:29N 30°08' W 093°19'0 0.0
2017-Sep-17 04:50N 30°08' W 093°19'0 0.0
2017-Sep-17 04:29N 30°08' W 093°19'0 0.0
2017-Sep-17 03:59N 30°08' W 093°19'0 0.0
2017-Sep-17 03:29N 30°08' W 093°19'0 0.0
2017-Sep-17 02:59N 30°08' W 093°19'0 0.0
2017-Sep-17 02:29N 30°08' W 093°19'0 0.0
2017-Sep-17 01:59N 30°08' W 093°19'0 0.0
2017-Sep-17 01:29N 30°08' W 093°19'0 0.0
2017-Sep-17 00:56N 30°08' W 093°19'0 0.0
2017-Sep-17 00:29N 30°08' W 093°19'0 0.0
2017-Sep-16 23:59N 30°08' W 093°19'0 0.0
2017-Sep-16 23:29N 30°08' W 093°19'0 0.0
2017-Sep-16 22:59N 30°08' W 093°19'0 0.0
2017-Sep-16 22:29N 30°08' W 093°19'0 0.0
2017-Sep-16 21:59N 30°08' W 093°19'0 0.0
2017-Sep-16 21:29N 30°08' W 093°19'0 0.6
2017-Sep-16 20:59N 30°08' W 093°19'0 0.0
2017-Sep-16 20:29N 30°08' W 093°19'0 0.2
2017-Sep-16 19:59N 30°08' W 093°20'2 4.0
2017-Sep-16 19:31N 30°10' W 093°19'3 6.1
2017-Sep-16 19:00N 30°12' W 093°17'2 4.0
2017-Sep-16 18:30N 30°14' W 093°15'0 0.3
2017-Sep-16 17:58N 30°14' W 093°16'0 0.0
2017-Sep-16 17:28N 30°14' W 093°16'0 0.0
2017-Sep-16 16:55N 30°14' W 093°16'0 0.0
2017-Sep-16 16:28N 30°14' W 093°16'0 0.0
2017-Sep-16 15:58N 30°14' W 093°16'0 0.0
2017-Sep-16 15:28N 30°14' W 093°16'0 0.0
2017-Sep-16 14:58N 30°14' W 093°16'0 0.0
2017-Sep-16 14:28N 30°14' W 093°16'0 0.0
2017-Sep-16 13:58N 30°14' W 093°16'0 0.0
2017-Sep-16 13:28N 30°14' W 093°16'0 0.0
2017-Sep-16 12:58N 30°14' W 093°16'0 0.0
2017-Sep-16 12:28N 30°14' W 093°16'0 0.0
2017-Sep-16 11:58N 30°14' W 093°16'0 0.0
2017-Sep-16 11:28N 30°14' W 093°16'0 0.0
2017-Sep-16 10:58N 30°14' W 093°16'0 0.0
2017-Sep-16 10:28N 30°14' W 093°16'0 0.0
2017-Sep-16 09:58N 30°14' W 093°16'0 0.0
2017-Sep-16 09:28N 30°14' W 093°16'0 0.0
2017-Sep-16 08:58N 30°14' W 093°16'0 0.0
2017-Sep-16 08:28N 30°14' W 093°16'0 0.0
2017-Sep-16 07:55N 30°14' W 093°16'0 0.0
2017-Sep-16 07:28N 30°14' W 093°16'0 0.0
2017-Sep-16 06:58N 30°14' W 093°16'0 0.0
2017-Sep-16 06:28N 30°14' W 093°16'0 0.0
2017-Sep-16 05:55N 30°14' W 093°16'0 0.0
2017-Sep-16 05:25N 30°14' W 093°16'0 0.0
2017-Sep-16 04:58N 30°14' W 093°16'0 0.0
2017-Sep-16 04:25N 30°14' W 093°16'0 0.0
2017-Sep-16 03:52N 30°14' W 093°16'0 0.0
2017-Sep-16 03:25N 30°14' W 093°16'0 0.0
2017-Sep-16 02:58N 30°14' W 093°16'0 0.0
2017-Sep-16 01:49N 30°14' W 093°16'0 0.0
2017-Sep-16 01:28N 30°14' W 093°16'0 0.0
2017-Sep-16 00:55N 30°14' W 093°16'0 0.0
2017-Sep-16 00:25N 30°14' W 093°16'0 0.0
2017-Sep-15 23:58N 30°14' W 093°16'0 0.0
2017-Sep-15 23:28N 30°14' W 093°16'0 0.0
2017-Sep-15 22:55N 30°14' W 093°16'0 0.0
2017-Sep-15 22:25N 30°14' W 093°16'0 0.0
2017-Sep-15 21:58N 30°14' W 093°16'0 0.0
2017-Sep-15 21:28N 30°14' W 093°16'0 0.0
2017-Sep-15 20:55N 30°14' W 093°16'0 0.0
2017-Sep-15 20:25N 30°14' W 093°16'0 0.0
2017-Sep-15 19:55N 30°14' W 093°16'0 0.0
2017-Sep-15 19:25N 30°14' W 093°16'0 0.0
2017-Sep-15 18:55N 30°14' W 093°16'0 0.0
2017-Sep-15 18:28N 30°14' W 093°16'0 0.0
2017-Sep-15 17:58N 30°14' W 093°16'0 0.0
2017-Sep-15 17:28N 30°14' W 093°16'0 0.0
2017-Sep-15 16:58N 30°14' W 093°16'0 0.0
2017-Sep-15 16:25N 30°14' W 093°16'0 0.0
2017-Sep-15 15:55N 30°14' W 093°16'0 0.0
2017-Sep-15 15:25N 30°14' W 093°16'0 0.0
2017-Sep-15 14:58N 30°14' W 093°16'0 0.0
2017-Sep-15 14:25N 30°14' W 093°16'0 0.0
2017-Sep-15 13:55N 30°14' W 093°16'0 0.0
2017-Sep-15 13:25N 30°14' W 093°16'0 0.0
2017-Sep-15 12:58N 30°14' W 093°16'0 0.0
2017-Sep-15 12:28N 30°14' W 093°16'0 0.0
2017-Sep-15 11:58N 30°14' W 093°16'0 0.0
2017-Sep-15 11:22N 30°14' W 093°16'0 0.0
2017-Sep-15 10:58N 30°14' W 093°16'0 0.0
2017-Sep-15 10:28N 30°14' W 093°16'0 0.0
2017-Sep-15 09:58N 30°14' W 093°16'0 0.0
2017-Sep-15 09:28N 30°14' W 093°16'0 0.0
2017-Sep-15 08:58N 30°14' W 093°16'0 0.0
2017-Sep-15 08:28N 30°14' W 093°16'0 0.0
2017-Sep-15 08:01N 30°14' W 093°16'0 0.0
2017-Sep-15 07:30N 30°14' W 093°16'0 0.0
2017-Sep-15 07:00N 30°14' W 093°16'0 0.0
2017-Sep-15 06:30N 30°14' W 093°16'0 0.0
2017-Sep-15 05:57N 30°14' W 093°16'0 0.0
2017-Sep-15 05:28N 30°14' W 093°16'0 0.0
2017-Sep-15 04:58N 30°14' W 093°16'0 0.0
2017-Sep-15 04:28N 30°14' W 093°16'0 0.0
2017-Sep-15 03:58N 30°14' W 093°16'0 0.0
2017-Sep-15 03:28N 30°14' W 093°16'0 0.0
2017-Sep-15 02:58N 30°14' W 093°16'0 0.0
2017-Sep-15 02:25N 30°14' W 093°16'0 0.0
2017-Sep-15 01:55N 30°14' W 093°16'0 0.0
2017-Sep-15 01:28N 30°14' W 093°16'0 0.0
2017-Sep-15 00:58N 30°14' W 093°16'0 0.0
2017-Sep-15 00:28N 30°14' W 093°16'0 0.0
2017-Sep-14 23:58N 30°14' W 093°16'0 0.0
2017-Sep-14 23:28N 30°14' W 093°16'0 0.0
2017-Sep-14 22:58N 30°14' W 093°16'0 0.0
2017-Sep-14 22:28N 30°14' W 093°16'0 0.0
2017-Sep-14 21:58N 30°14' W 093°16'0 0.0
2017-Sep-14 21:28N 30°14' W 093°16'0 0.0
2017-Sep-14 20:58N 30°14' W 093°16'0 0.0
2017-Sep-14 20:28N 30°14' W 093°16'0 0.0
2017-Sep-14 19:58N 30°14' W 093°16'0 0.0
2017-Sep-14 19:28N 30°14' W 093°16'0 0.0
2017-Sep-14 18:58N 30°14' W 093°16'0 0.0
2017-Sep-14 18:28N 30°14' W 093°16'0 0.0
2017-Sep-14 17:58N 30°14' W 093°16'0 0.0
2017-Sep-14 17:25N 30°14' W 093°16'0 0.0
2017-Sep-14 16:58N 30°14' W 093°16'0 0.0
2017-Sep-14 16:28N 30°14' W 093°16'0 0.0
2017-Sep-14 15:58N 30°14' W 093°16'0 0.0
2017-Sep-14 15:28N 30°14' W 093°16'0 0.0
2017-Sep-14 14:58N 30°14' W 093°16'0 0.0
2017-Sep-14 14:27N 30°14' W 093°16'0 0.0
2017-Sep-14 13:57N 30°14' W 093°16'0 0.0
2017-Sep-14 13:30N 30°14' W 093°16'0 0.0
2017-Sep-14 12:54N 30°14' W 093°16'0 0.0
2017-Sep-14 12:12N 30°14' W 093°16'0 0.0
2017-Sep-14 12:00N 30°14' W 093°16'0 0.0
2017-Sep-14 11:30N 30°14' W 093°16'0 0.0
2017-Sep-14 11:00N 30°14' W 093°16'0 0.0
2017-Sep-14 10:30N 30°14' W 093°16'0 0.0
2017-Sep-14 10:00N 30°14' W 093°16'0 0.0
2017-Sep-14 09:27N 30°14' W 093°16'0 0.0
2017-Sep-14 08:54N 30°14' W 093°16'0 0.0
2017-Sep-14 08:27N 30°14' W 093°16'0 0.0
2017-Sep-14 08:00N 30°14' W 093°16'0 0.0
2017-Sep-14 07:30N 30°14' W 093°16'0 0.0
2017-Sep-14 07:00N 30°14' W 093°16'0 0.0
2017-Sep-14 06:30N 30°14' W 093°16'0 0.0
2017-Sep-14 06:00N 30°14' W 093°16'0 0.0
2017-Sep-14 05:30N 30°14' W 093°16'0 0.0
2017-Sep-14 05:00N 30°14' W 093°16'0 0.0
2017-Sep-14 04:30N 30°14' W 093°16'0 0.0
2017-Sep-14 04:00N 30°14' W 093°16'0 0.0
2017-Sep-14 03:24N 30°14' W 093°16'0 0.0
2017-Sep-14 03:00N 30°14' W 093°16'0 0.0
2017-Sep-14 02:30N 30°14' W 093°16'0 0.0
2017-Sep-14 02:00N 30°14' W 093°16'0 0.0
2017-Sep-14 01:30N 30°14' W 093°16'0 0.0
2017-Sep-14 01:00N 30°14' W 093°16'0 0.0
2017-Sep-14 00:30N 30°14' W 093°16'0 0.0
2017-Sep-14 00:00N 30°14' W 093°16'0 0.0
2017-Sep-13 23:30N 30°14' W 093°16'0 0.0
2017-Sep-13 23:00N 30°14' W 093°16'0 0.0
2017-Sep-13 22:30N 30°14' W 093°16'0 0.0
2017-Sep-13 22:00N 30°14' W 093°16'0 0.0
2017-Sep-13 21:30N 30°14' W 093°16'0 0.0
2017-Sep-13 21:00N 30°14' W 093°16'0 0.0
2017-Sep-13 20:27N 30°14' W 093°16'0 0.0
2017-Sep-13 20:00N 30°14' W 093°16'0 0.0
2017-Sep-13 19:30N 30°14' W 093°16'0 0.0
2017-Sep-13 18:54N 30°14' W 093°16'0 0.0
2017-Sep-13 18:30N 30°14' W 093°16'0 0.0
2017-Sep-13 18:00N 30°14' W 093°16'0 0.0
2017-Sep-13 17:30N 30°14' W 093°16'0 0.0
2017-Sep-13 17:00N 30°14' W 093°16'0 0.0
2017-Sep-13 16:30N 30°14' W 093°16'0 0.0
2017-Sep-13 15:57N 30°14' W 093°16'0 0.0
2017-Sep-13 15:30N 30°14' W 093°16'0 0.0
2017-Sep-13 14:36N 30°14' W 093°16'0 0.0
2017-Sep-13 14:30N 30°14' W 093°16'0 0.0
2017-Sep-13 14:00N 30°14' W 093°16'0 0.0
2017-Sep-13 13:30N 30°14' W 093°16'0 0.0
2017-Sep-13 13:00N 30°14' W 093°16'0 0.0
2017-Sep-13 12:30N 30°14' W 093°16'0 0.0
2017-Sep-13 12:00N 30°14' W 093°16'0 0.0
2017-Sep-13 11:30N 30°14' W 093°16'0 0.0
2017-Sep-13 10:57N 30°14' W 093°16'0 0.0
2017-Sep-13 10:27N 30°14' W 093°16'0 0.0
2017-Sep-13 10:00N 30°14' W 093°16'0 0.0
2017-Sep-13 09:30N 30°14' W 093°16'0 0.0
2017-Sep-13 09:00N 30°14' W 093°16'0 0.0
2017-Sep-13 08:30N 30°14' W 093°16'0 0.0
2017-Sep-13 08:00N 30°14' W 093°16'0 0.0
2017-Sep-13 07:30N 30°14' W 093°16'0 0.0
2017-Sep-13 07:00N 30°14' W 093°16'0 0.0
2017-Sep-13 06:30N 30°14' W 093°16'0 0.0
2017-Sep-13 06:00N 30°14' W 093°16'0 0.0
2017-Sep-13 05:24N 30°14' W 093°16'0 0.0
2017-Sep-13 05:00N 30°14' W 093°16'0 0.0
2017-Sep-13 04:27N 30°14' W 093°16'0 0.0
2017-Sep-13 04:00N 30°14' W 093°16'0 0.0
2017-Sep-13 03:30N 30°14' W 093°16'0 0.0
2017-Sep-13 02:57N 30°14' W 093°16'0 0.0
2017-Sep-13 02:27N 30°14' W 093°16'0 0.0
2017-Sep-13 01:59N 30°14' W 093°16'0 0.0
2017-Sep-13 01:29N 30°14' W 093°16'0 0.0
2017-Sep-13 00:59N 30°14' W 093°16'0 0.0
2017-Sep-13 00:29N 30°14' W 093°16'0 0.0
2017-Sep-12 23:59N 30°14' W 093°16'0 0.0
2017-Sep-12 23:29N 30°14' W 093°16'0 0.0
2017-Sep-12 22:59N 30°14' W 093°16'0 0.0
2017-Sep-12 22:29N 30°14' W 093°16'0 0.1
2017-Sep-12 21:59N 30°14' W 093°16'0 0.8
2017-Sep-12 21:29N 30°14' W 093°15'0 0.0
2017-Sep-12 20:59N 30°14' W 093°15'0 0.0
2017-Sep-12 20:29N 30°14' W 093°15'0 0.0
2017-Sep-12 19:59N 30°14' W 093°15'0 0.0
2017-Sep-12 19:29N 30°14' W 093°15'0 0.0
2017-Sep-12 18:59N 30°14' W 093°15'0 0.0
2017-Sep-12 18:26N 30°14' W 093°15'0 0.0
2017-Sep-12 17:59N 30°14' W 093°15'0 0.0
2017-Sep-12 17:26N 30°14' W 093°15'0 0.0
2017-Sep-12 16:59N 30°14' W 093°15'0 0.0
2017-Sep-12 16:29N 30°14' W 093°15'0 0.0
2017-Sep-12 15:59N 30°14' W 093°15'0 0.0
2017-Sep-12 15:29N 30°14' W 093°15'0 0.0
2017-Sep-12 14:59N 30°14' W 093°15'0 0.0
2017-Sep-12 14:29N 30°14' W 093°15'0 0.0
2017-Sep-12 05:16N 30°14' W 093°15'0 0.0
2017-Sep-12 04:55N 30°14' W 093°15'0 0.0
2017-Sep-12 04:28N 30°14' W 093°15'0 0.8
2017-Sep-12 03:59N 30°14' W 093°16'0 0.1
2017-Sep-12 03:23N 30°14' W 093°16'0 0.0
2017-Sep-12 02:59N 30°14' W 093°16'0 0.0
2017-Sep-12 02:26N 30°14' W 093°16'0 0.0
2017-Sep-12 01:59N 30°14' W 093°16'0 0.0
2017-Sep-12 01:29N 30°14' W 093°16'0 0.0
2017-Sep-12 00:59N 30°14' W 093°16'  
Track history (hours):
 
Tides and Currents Weather Stations Pressure Air Temp Water Temp Dewpoint Dewpoint Depression Visibility Wind Speed Wind Dir Waves Ship Positions

Choctaw

Owner: Canal Barge Company, Inc., Belle Chasse, LA. More information available from US FCC via Universal Licensing System and Coast Guard Vessel Documentation Center.

Last reported at 2017-Sep-22 00:48 UTC. Time now 2017-Sep-23 02:25 UTC.
Position N 29°42' W 095°03'.

Length 25 m.

Type: Towing. MMSI: 367456760.

Date/timePositionNaut miles runAvg speedWind from/ knotsBaromVisibWave heightAir tempDewpointWater temp
2017-Sep-22 00:48N 29°42' W 095°03'1 2.0
2017-Sep-22 00:18N 29°42' W 095°02'1 1.5
2017-Sep-21 23:57N 29°43' W 095°01'2 4.1
2017-Sep-21 23:30N 29°44' W 095°03'0 0.0
2017-Sep-21 05:24N 29°44' W 095°03'2 4.3
2017-Sep-21 04:59N 29°43' W 095°01'1 2.2
2017-Sep-21 04:22N 29°42' W 095°03'0 0.0
2017-Sep-20 20:25N 29°42' W 095°03'0 0.0
2017-Sep-20 19:55N 29°42' W 095°03'0 0.0
2017-Sep-20 19:28N 29°42' W 095°03'0 0.0
2017-Sep-20 18:04N 29°42' W 095°03'0 0.0
2017-Sep-20 17:52N 29°42' W 095°03'0 0.0
2017-Sep-20 16:46N 29°42' W 095°03'0 0.0
2017-Sep-20 16:16N 29°42' W 095°03'0 0.0
2017-Sep-20 15:52N 29°42' W 095°03'0 0.0
2017-Sep-20 15:25N 29°42' W 095°03'0 0.0
2017-Sep-20 12:28N 29°42' W 095°03'0 0.0
2017-Sep-20 10:25N 29°42' W 095°03'0 0.0
2017-Sep-20 09:58N 29°42' W 095°03'0 0.0
2017-Sep-20 09:28N 29°42' W 095°03'0 0.0
2017-Sep-20 08:55N 29°42' W 095°03'0 0.0
2017-Sep-20 07:28N 29°42' W 095°03'0 0.0
2017-Sep-20 06:57N 29°42' W 095°03'0 0.0
2017-Sep-20 06:03N 29°42' W 095°03'0 0.0
2017-Sep-20 06:00N 29°42' W 095°03'0 0.0
2017-Sep-20 05:30N 29°42' W 095°03'0 0.0
2017-Sep-20 05:00N 29°42' W 095°03'0 0.0
2017-Sep-20 04:30N 29°42' W 095°03'0 0.0
2017-Sep-20 03:57N 29°42' W 095°03'0 0.0
2017-Sep-20 03:30N 29°42' W 095°03'0 0.0
2017-Sep-20 02:54N 29°42' W 095°03'0 0.0
2017-Sep-20 02:27N 29°42' W 095°03'0 0.0
2017-Sep-20 01:39N 29°42' W 095°03'0 0.0
2017-Sep-20 01:21N 29°42' W 095°03'0 0.0
2017-Sep-20 00:51N 29°42' W 095°03'0 0.0
2017-Sep-20 00:24N 29°42' W 095°03'0 0.0
2017-Sep-20 00:00N 29°42' W 095°03'0 0.0
2017-Sep-19 23:27N 29°42' W 095°03'0 0.0
2017-Sep-19 22:15N 29°42' W 095°03'0 0.0
2017-Sep-19 21:54N 29°42' W 095°03'0 0.0
2017-Sep-19 21:21N 29°42' W 095°03'0 0.0
2017-Sep-19 21:00N 29°42' W 095°03'0 0.0
2017-Sep-19 20:27N 29°42' W 095°03'0 0.0
2017-Sep-19 18:33N 29°42' W 095°03'0 0.6
2017-Sep-19 18:18N 29°42' W 095°03'1 3.4
2017-Sep-19 17:59N 29°42' W 095°01'2 3.7
2017-Sep-19 17:28N 29°44' W 095°02'1 0.0
2017-Sep-18 14:02N 29°44' W 095°02'1 5.2
2017-Sep-18 13:50N 29°43' W 095°01'2 6.2
2017-Sep-18 13:30N 29°42' W 094°59'4 7.3
2017-Sep-18 13:00N 29°38' W 094°58'4 7.5
2017-Sep-18 12:30N 29°35' W 094°56'70 4.1
2017-Sep-17 19:34N 30°03' W 093°42'2 5.3
2017-Sep-17 19:17N 30°04' W 093°41'2 5.4
2017-Sep-17 18:59N 30°04' W 093°39'3 5.2
2017-Sep-17 18:30N 30°04' W 093°36'2 4.7
2017-Sep-17 18:00N 30°04' W 093°33'2 4.6
2017-Sep-17 17:30N 30°04' W 093°31'2 3.7
2017-Sep-17 17:00N 30°04' W 093°28'2 4.2
2017-Sep-17 16:30N 30°04' W 093°26'2 4.5
2017-Sep-17 16:00N 30°04' W 093°23'2 3.7
2017-Sep-17 15:30N 30°04' W 093°21'2 3.6
2017-Sep-17 15:00N 30°05' W 093°20'1 2.1
2017-Sep-17 14:29N 30°06' W 093°19'1 1.1
2017-Sep-17 14:00N 30°06' W 093°20'2 3.2
2017-Sep-17 13:30N 30°08' W 093°20'0 1.0
2017-Sep-17 13:00N 30°08' W 093°20'0 0.0
2017-Sep-17 12:27N 30°08' W 093°20'0 0.1
2017-Sep-17 12:00N 30°08' W 093°20'0 0.7
2017-Sep-17 11:30N 30°08' W 093°19'0 0.0
2017-Sep-17 11:00N 30°08' W 093°19'0 0.0
2017-Sep-17 10:30N 30°08' W 093°19'0 0.0
2017-Sep-17 09:59N 30°08' W 093°19'0 0.0
2017-Sep-17 09:29N 30°08' W 093°19'0 0.0
2017-Sep-17 08:59N 30°08' W 093°19'0 0.0
2017-Sep-17 08:29N 30°08' W 093°19'0 0.0
2017-Sep-17 07:59N 30°08' W 093°19'0 0.0
2017-Sep-17 07:29N 30°08' W 093°19'0 0.0
2017-Sep-17 06:59N 30°08' W 093°19'0 0.0
2017-Sep-17 06:29N 30°08' W 093°19'0 0.0
2017-Sep-17 05:59N 30°08' W 093°19'0 0.0
2017-Sep-17 05:29N 30°08' W 093°19'0 0.0
2017-Sep-17 04:50N 30°08' W 093°19'0 0.0
2017-Sep-17 04:29N 30°08' W 093°19'0 0.0
2017-Sep-17 03:59N 30°08' W 093°19'0 0.0
2017-Sep-17 03:29N 30°08' W 093°19'0 0.0
2017-Sep-17 02:59N 30°08' W 093°19'0 0.0
2017-Sep-17 02:29N 30°08' W 093°19'0 0.0
2017-Sep-17 01:59N 30°08' W 093°19'0 0.0
2017-Sep-17 01:29N 30°08' W 093°19'0 0.0
2017-Sep-17 00:56N 30°08' W 093°19'0 0.0
2017-Sep-17 00:29N 30°08' W 093°19'0 0.0
2017-Sep-16 23:59N 30°08' W 093°19'0 0.0
2017-Sep-16 23:29N 30°08' W 093°19'0 0.0
2017-Sep-16 22:59N 30°08' W 093°19'0 0.0
2017-Sep-16 22:29N 30°08' W 093°19'0 0.0
2017-Sep-16 21:59N 30°08' W 093°19'0 0.0
2017-Sep-16 21:29N 30°08' W 093°19'0 0.6
2017-Sep-16 20:59N 30°08' W 093°19'0 0.0
2017-Sep-16 20:29N 30°08' W 093°19'0 0.2
2017-Sep-16 19:59N 30°08' W 093°20'2 4.0
2017-Sep-16 19:31N 30°10' W 093°19'3 6.1
2017-Sep-16 19:00N 30°12' W 093°17'2 4.0
2017-Sep-16 18:30N 30°14' W 093°15'0 0.3
2017-Sep-16 17:58N 30°14' W 093°16'0 0.0
2017-Sep-16 17:28N 30°14' W 093°16'0 0.0
2017-Sep-16 16:55N 30°14' W 093°16'0 0.0
2017-Sep-16 16:28N 30°14' W 093°16'0 0.0
2017-Sep-16 15:58N 30°14' W 093°16'0 0.0
2017-Sep-16 15:28N 30°14' W 093°16'0 0.0
2017-Sep-16 14:58N 30°14' W 093°16'0 0.0
2017-Sep-16 14:28N 30°14' W 093°16'0 0.0
2017-Sep-16 13:58N 30°14' W 093°16'0 0.0
2017-Sep-16 13:28N 30°14' W 093°16'0 0.0
2017-Sep-16 12:58N 30°14' W 093°16'0 0.0
2017-Sep-16 12:28N 30°14' W 093°16'0 0.0
2017-Sep-16 11:58N 30°14' W 093°16'0 0.0
2017-Sep-16 11:28N 30°14' W 093°16'0 0.0
2017-Sep-16 10:58N 30°14' W 093°16'0 0.0
2017-Sep-16 10:28N 30°14' W 093°16'0 0.0
2017-Sep-16 09:58N 30°14' W 093°16'0 0.0
2017-Sep-16 09:28N 30°14' W 093°16'0 0.0
2017-Sep-16 08:58N 30°14' W 093°16'0 0.0
2017-Sep-16 08:28N 30°14' W 093°16'0 0.0
2017-Sep-16 07:55N 30°14' W 093°16'0 0.0
2017-Sep-16 07:28N 30°14' W 093°16'0 0.0
2017-Sep-16 06:58N 30°14' W 093°16'0 0.0
2017-Sep-16 06:28N 30°14' W 093°16'0 0.0
2017-Sep-16 05:55N 30°14' W 093°16'0 0.0
2017-Sep-16 05:25N 30°14' W 093°16'0 0.0
2017-Sep-16 04:58N 30°14' W 093°16'0 0.0
2017-Sep-16 04:25N 30°14' W 093°16'0 0.0
2017-Sep-16 03:52N 30°14' W 093°16'0 0.0
2017-Sep-16 03:25N 30°14' W 093°16'0 0.0
2017-Sep-16 02:58N 30°14' W 093°16'0 0.0
2017-Sep-16 01:49N 30°14' W 093°16'0 0.0
2017-Sep-16 01:28N 30°14' W 093°16'0 0.0
2017-Sep-16 00:55N 30°14' W 093°16'0 0.0
2017-Sep-16 00:25N 30°14' W 093°16'0 0.0
2017-Sep-15 23:58N 30°14' W 093°16'0 0.0
2017-Sep-15 23:28N 30°14' W 093°16'0 0.0
2017-Sep-15 22:55N 30°14' W 093°16'0 0.0
2017-Sep-15 22:25N 30°14' W 093°16'0 0.0
2017-Sep-15 21:58N 30°14' W 093°16'0 0.0
2017-Sep-15 21:28N 30°14' W 093°16'0 0.0
2017-Sep-15 20:55N 30°14' W 093°16'0 0.0
2017-Sep-15 20:25N 30°14' W 093°16'0 0.0
2017-Sep-15 19:55N 30°14' W 093°16'0 0.0
2017-Sep-15 19:25N 30°14' W 093°16'0 0.0
2017-Sep-15 18:55N 30°14' W 093°16'0 0.0
2017-Sep-15 18:28N 30°14' W 093°16'0 0.0
2017-Sep-15 17:58N 30°14' W 093°16'0 0.0
2017-Sep-15 17:28N 30°14' W 093°16'0 0.0
2017-Sep-15 16:58N 30°14' W 093°16'0 0.0
2017-Sep-15 16:25N 30°14' W 093°16'0 0.0
2017-Sep-15 15:55N 30°14' W 093°16'0 0.0
2017-Sep-15 15:25N 30°14' W 093°16'0 0.0
2017-Sep-15 14:58N 30°14' W 093°16'0 0.0
2017-Sep-15 14:25N 30°14' W 093°16'0 0.0
2017-Sep-15 13:55N 30°14' W 093°16'0 0.0
2017-Sep-15 13:25N 30°14' W 093°16'0 0.0
2017-Sep-15 12:58N 30°14' W 093°16'0 0.0
2017-Sep-15 12:28N 30°14' W 093°16'0 0.0
2017-Sep-15 11:58N 30°14' W 093°16'0 0.0
2017-Sep-15 11:22N 30°14' W 093°16'0 0.0
2017-Sep-15 10:58N 30°14' W 093°16'0 0.0
2017-Sep-15 10:28N 30°14' W 093°16'0 0.0
2017-Sep-15 09:58N 30°14' W 093°16'0 0.0
2017-Sep-15 09:28N 30°14' W 093°16'0 0.0
2017-Sep-15 08:58N 30°14' W 093°16'0 0.0
2017-Sep-15 08:28N 30°14' W 093°16'0 0.0
2017-Sep-15 08:01N 30°14' W 093°16'0 0.0
2017-Sep-15 07:30N 30°14' W 093°16'0 0.0
2017-Sep-15 07:00N 30°14' W 093°16'0 0.0
2017-Sep-15 06:30N 30°14' W 093°16'0 0.0
2017-Sep-15 05:57N 30°14' W 093°16'0 0.0
2017-Sep-15 05:28N 30°14' W 093°16'0 0.0
2017-Sep-15 04:58N 30°14' W 093°16'0 0.0
2017-Sep-15 04:28N 30°14' W 093°16'0 0.0
2017-Sep-15 03:58N 30°14' W 093°16'0 0.0
2017-Sep-15 03:28N 30°14' W 093°16'0 0.0
2017-Sep-15 02:58N 30°14' W 093°16'0 0.0
2017-Sep-15 02:25N 30°14' W 093°16'0 0.0
2017-Sep-15 01:55N 30°14' W 093°16'0 0.0
2017-Sep-15 01:28N 30°14' W 093°16'0 0.0
2017-Sep-15 00:58N 30°14' W 093°16'0 0.0
2017-Sep-15 00:28N 30°14' W 093°16'0 0.0
2017-Sep-14 23:58N 30°14' W 093°16'0 0.0
2017-Sep-14 23:28N 30°14' W 093°16'0 0.0
2017-Sep-14 22:58N 30°14' W 093°16'0 0.0
2017-Sep-14 22:28N 30°14' W 093°16'0 0.0
2017-Sep-14 21:58N 30°14' W 093°16'0 0.0
2017-Sep-14 21:28N 30°14' W 093°16'0 0.0
2017-Sep-14 20:58N 30°14' W 093°16'0 0.0
2017-Sep-14 20:28N 30°14' W 093°16'0 0.0
2017-Sep-14 19:58N 30°14' W 093°16'0 0.0
2017-Sep-14 19:28N 30°14' W 093°16'0 0.0
2017-Sep-14 18:58N 30°14' W 093°16'0 0.0
2017-Sep-14 18:28N 30°14' W 093°16'0 0.0
2017-Sep-14 17:58N 30°14' W 093°16'0 0.0
2017-Sep-14 17:25N 30°14' W 093°16'0 0.0
2017-Sep-14 16:58N 30°14' W 093°16'0 0.0
2017-Sep-14 16:28N 30°14' W 093°16'0 0.0
2017-Sep-14 15:58N 30°14' W 093°16'0 0.0
2017-Sep-14 15:28N 30°14' W 093°16'0 0.0
2017-Sep-14 14:58N 30°14' W 093°16'0 0.0
2017-Sep-14 14:27N 30°14' W 093°16'0 0.0
2017-Sep-14 13:57N 30°14' W 093°16'0 0.0
2017-Sep-14 13:30N 30°14' W 093°16'0 0.0
2017-Sep-14 12:54N 30°14' W 093°16'0 0.0
2017-Sep-14 12:12N 30°14' W 093°16'0 0.0
2017-Sep-14 12:00N 30°14' W 093°16'0 0.0
2017-Sep-14 11:30N 30°14' W 093°16'0 0.0
2017-Sep-14 11:00N 30°14' W 093°16'0 0.0
2017-Sep-14 10:30N 30°14' W 093°16'0 0.0
2017-Sep-14 10:00N 30°14' W 093°16'0 0.0
2017-Sep-14 09:27N 30°14' W 093°16'0 0.0
2017-Sep-14 08:54N 30°14' W 093°16'0 0.0
2017-Sep-14 08:27N 30°14' W 093°16'0 0.0
2017-Sep-14 08:00N 30°14' W 093°16'0 0.0
2017-Sep-14 07:30N 30°14' W 093°16'0 0.0
2017-Sep-14 07:00N 30°14' W 093°16'0 0.0
2017-Sep-14 06:30N 30°14' W 093°16'0 0.0
2017-Sep-14 06:00N 30°14' W 093°16'0 0.0
2017-Sep-14 05:30N 30°14' W 093°16'0 0.0
2017-Sep-14 05:00N 30°14' W 093°16'0 0.0
2017-Sep-14 04:30N 30°14' W 093°16'0 0.0
2017-Sep-14 04:00N 30°14' W 093°16'0 0.0
2017-Sep-14 03:24N 30°14' W 093°16'0 0.0
2017-Sep-14 03:00N 30°14' W 093°16'0 0.0
2017-Sep-14 02:30N 30°14' W 093°16'0 0.0
2017-Sep-14 02:00N 30°14' W 093°16'0 0.0
2017-Sep-14 01:30N 30°14' W 093°16'0 0.0
2017-Sep-14 01:00N 30°14' W 093°16'0 0.0
2017-Sep-14 00:30N 30°14' W 093°16'0 0.0
2017-Sep-14 00:00N 30°14' W 093°16'0 0.0
2017-Sep-13 23:30N 30°14' W 093°16'0 0.0
2017-Sep-13 23:00N 30°14' W 093°16'0 0.0
2017-Sep-13 22:30N 30°14' W 093°16'0 0.0
2017-Sep-13 22:00N 30°14' W 093°16'0 0.0
2017-Sep-13 21:30N 30°14' W 093°16'0 0.0
2017-Sep-13 21:00N 30°14' W 093°16'0 0.0
2017-Sep-13 20:27N 30°14' W 093°16'0 0.0
2017-Sep-13 20:00N 30°14' W 093°16'0 0.0
2017-Sep-13 19:30N 30°14' W 093°16'0 0.0
2017-Sep-13 18:54N 30°14' W 093°16'0 0.0
2017-Sep-13 18:30N 30°14' W 093°16'0 0.0
2017-Sep-13 18:00N 30°14' W 093°16'0 0.0
2017-Sep-13 17:30N 30°14' W 093°16'0 0.0
2017-Sep-13 17:00N 30°14' W 093°16'0 0.0
2017-Sep-13 16:30N 30°14' W 093°16'0 0.0
2017-Sep-13 15:57N 30°14' W 093°16'0 0.0
2017-Sep-13 15:30N 30°14' W 093°16'0 0.0
2017-Sep-13 14:36N 30°14' W 093°16'0 0.0
2017-Sep-13 14:30N 30°14' W 093°16'0 0.0
2017-Sep-13 14:00N 30°14' W 093°16'0 0.0
2017-Sep-13 13:30N 30°14' W 093°16'0 0.0
2017-Sep-13 13:00N 30°14' W 093°16'0 0.0
2017-Sep-13 12:30N 30°14' W 093°16'0 0.0
2017-Sep-13 12:00N 30°14' W 093°16'0 0.0
2017-Sep-13 11:30N 30°14' W 093°16'0 0.0
2017-Sep-13 10:57N 30°14' W 093°16'0 0.0
2017-Sep-13 10:27N 30°14' W 093°16'0 0.0
2017-Sep-13 10:00N 30°14' W 093°16'0 0.0
2017-Sep-13 09:30N 30°14' W 093°16'0 0.0
2017-Sep-13 09:00N 30°14' W 093°16'0 0.0
2017-Sep-13 08:30N 30°14' W 093°16'0 0.0
2017-Sep-13 08:00N 30°14' W 093°16'0 0.0
2017-Sep-13 07:30N 30°14' W 093°16'0 0.0
2017-Sep-13 07:00N 30°14' W 093°16'0 0.0
2017-Sep-13 06:30N 30°14' W 093°16'0 0.0
2017-Sep-13 06:00N 30°14' W 093°16'0 0.0
2017-Sep-13 05:24N 30°14' W 093°16'0 0.0
2017-Sep-13 05:00N 30°14' W 093°16'0 0.0
2017-Sep-13 04:27N 30°14' W 093°16'0 0.0
2017-Sep-13 04:00N 30°14' W 093°16'0 0.0
2017-Sep-13 03:30N 30°14' W 093°16'0 0.0
2017-Sep-13 02:57N 30°14' W 093°16'0 0.0
2017-Sep-13 02:27N 30°14' W 093°16'0 0.0
2017-Sep-13 01:59N 30°14' W 093°16'0 0.0
2017-Sep-13 01:29N 30°14' W 093°16'0 0.0
2017-Sep-13 00:59N 30°14' W 093°16'0 0.0
2017-Sep-13 00:29N 30°14' W 093°16'0 0.0
2017-Sep-12 23:59N 30°14' W 093°16'0 0.0
2017-Sep-12 23:29N 30°14' W 093°16'0 0.0
2017-Sep-12 22:59N 30°14' W 093°16'0 0.0
2017-Sep-12 22:29N 30°14' W 093°16'0 0.1
2017-Sep-12 21:59N 30°14' W 093°16'0 0.8
2017-Sep-12 21:29N 30°14' W 093°15'0 0.0
2017-Sep-12 20:59N 30°14' W 093°15'0 0.0
2017-Sep-12 20:29N 30°14' W 093°15'0 0.0
2017-Sep-12 19:59N 30°14' W 093°15'0 0.0
2017-Sep-12 19:29N 30°14' W 093°15'0 0.0
2017-Sep-12 18:59N 30°14' W 093°15'0 0.0
2017-Sep-12 18:26N 30°14' W 093°15'0 0.0
2017-Sep-12 17:59N 30°14' W 093°15'0 0.0
2017-Sep-12 17:26N 30°14' W 093°15'0 0.0
2017-Sep-12 16:59N 30°14' W 093°15'0 0.0
2017-Sep-12 16:29N 30°14' W 093°15'0 0.0
2017-Sep-12 15:59N 30°14' W 093°15'0 0.0
2017-Sep-12 15:29N 30°14' W 093°15'0 0.0
2017-Sep-12 14:59N 30°14' W 093°15'0 0.0
2017-Sep-12 14:29N 30°14' W 093°15'0 0.0
2017-Sep-12 05:16N 30°14' W 093°15'0 0.0
2017-Sep-12 04:55N 30°14' W 093°15'0 0.0
2017-Sep-12 04:28N 30°14' W 093°15'0 0.8
2017-Sep-12 03:59N 30°14' W 093°16'0 0.1
2017-Sep-12 03:23N 30°14' W 093°16'0 0.0
2017-Sep-12 02:59N 30°14' W 093°16'0 0.0
2017-Sep-12 02:26N 30°14' W 093°16'0 0.0
2017-Sep-12 01:59N 30°14' W 093°16'0 0.0
2017-Sep-12 01:29N 30°14' W 093°16'0 0.0
2017-Sep-12 00:59N 30°14' W 093°16'  

Dump ship's entire track history